Overview Statistics Trail Chart Weather Telemetry Raw packets
 

This is the latest recevied telemetry packets stored in our database for station/object IS0QLX-11. If no packets are shown the sender has not sent any telemetry packets the latest 10 day(s).

Telemetry packets is used to share measurements like repeteater parameters, battery voltage, radiation readings (or any other measurements).

<< 1 2 3 4 >>
Time Press* Temp.in* Hum* QNH* Temp.out*
1788603918 1018.6 hPa 35.8 C deg 37.9 % 1019.3 hPa 0 C deg
1788602143 1019 hPa 35.1 C deg 37.5 % 1019.6 hPa 0 C deg
1788602084 1019 hPa 35.1 C deg 37.5 % 1019.6 hPa 0 C deg
1788600280 1019.1 hPa 33.9 C deg 37.6 % 1019.8 hPa 0 C deg
1788598425 1019.3 hPa 32.8 C deg 37.4 % 1020 hPa 0 C deg
1788596603 1019 hPa 31.5 C deg 37.5 % 1019.7 hPa 0 C deg
1788594767 1019 hPa 30.3 C deg 37.5 % 1019.7 hPa 0 C deg
1788592936 1018.9 hPa 29 C deg 37.5 % 1019.6 hPa 0 C deg
1788591104 1018.9 hPa 27.9 C deg 37.7 % 1019.6 hPa 0 C deg
1788589276 1018.7 hPa 26.7 C deg 38.2 % 1019.4 hPa 0 C deg
1788587455 1018.5 hPa 25.9 C deg 38.7 % 1019.2 hPa 0 C deg
1788585621 1018.2 hPa 25.5 C deg 39.1 % 1018.9 hPa 0 C deg
1788583785 1017.9 hPa 25.6 C deg 39.2 % 1018.6 hPa 0 C deg
1788581952 1017.8 hPa 25.8 C deg 39.3 % 1018.5 hPa 0 C deg
1788580122 1017.9 hPa 25.8 C deg 39.4 % 1018.6 hPa 0 C deg
1788578293 1017.8 hPa 26.2 C deg 39.2 % 1018.5 hPa 0 C deg
1788576463 1017.6 hPa 26.4 C deg 39.1 % 1018.3 hPa 0 C deg
1788574634 1017.8 hPa 26.3 C deg 39.6 % 1018.4 hPa 0 C deg
1788572803 1017.9 hPa 26.9 C deg 39.3 % 1018.6 hPa 0 C deg
1788570973 1018 hPa 27.3 C deg 39.2 % 1018.6 hPa 0 C deg
1788569141 1018 hPa 27.8 C deg 38.8 % 1018.7 hPa 0 C deg
1788567315 1018.3 hPa 27.8 C deg 38.9 % 1019 hPa 0 C deg
1788565483 1018.5 hPa 27.6 C deg 39.3 % 1019.2 hPa 0 C deg
1788563654 1018.8 hPa 28 C deg 39.1 % 1019.4 hPa 0 C deg
1788561830 1018.8 hPa 28.2 C deg 39.2 % 1019.5 hPa 0 C deg
*Used Equation Coefficients:
Press: 0, 1, 0
Temp.in: 0, 1, 0
Hum: 0, 1, 0
QNH: 0, 1, 0
Temp.out: 0, 1, 0

  • The parameter names for the analog channels will be Value1, Value2, Value3 (up to Value5) if station has not sent a PARAM-packet that specifies the parameter names for each analog channel.
  • Each analog value is a decimal number between 000 and 255 (according to APRS specifications). The receiver use the telemetry equation coefficientsto to restore the original sensor values. If no EQNS-packet with equation coefficients is sent we will show the values as is (this corresponds to the equation coefficients a=0, b=1 and c=0).
    The sent equation coefficients is used in the equation: a * value2 + b * value + c.
  • The units for the analog values will not be shown if station has not sent a UNIT-packet specifying what unit's to use.
  • The parameter names for the digital bits will be Bit1, Bit2, Bit3 (up to Bit8) if station has not sent a PARAM-packet that specifies the parameter names for each digital bit.
  • All bit labels will be named "On" if station has not sent a UNIT-packet that specifies the label of each bit.
  • A bit is considered to be On when the bit is 1 if station has not sent a BITS-packet that specifies another "Bit sense" (a BITS-packet specify the state of the bits that match the BIT labels)